createdAt,value
2023-01-21T00:01:41.720Z,2.10
2023-01-21T00:06:46.023Z,2.10
2023-01-21T00:11:48.999Z,2.10
2023-01-21T00:16:51.851Z,2.10
2023-01-21T00:21:54.852Z,2.00
2023-01-21T00:26:57.755Z,2.00
2023-01-21T00:32:00.855Z,2.00
2023-01-21T00:37:03.747Z,2.10
2023-01-21T00:42:08.410Z,2.00
2023-01-21T00:47:11.388Z,2.10
2023-01-21T00:52:14.140Z,2.10
2023-01-21T00:57:17.155Z,2.10
2023-01-21T01:02:20.491Z,2.10
2023-01-21T01:07:23.665Z,2.10
2023-01-21T01:12:28.213Z,2.10
2023-01-21T01:17:31.158Z,2.10
2023-01-21T01:22:33.977Z,2.10
2023-01-21T01:27:36.985Z,2.10
2023-01-21T01:32:39.964Z,2.10
2023-01-21T01:37:42.940Z,2.10
2023-01-21T01:42:46.104Z,2.10
2023-01-21T01:47:59.944Z,2.10
2023-01-21T01:53:03.658Z,2.10
2023-01-21T01:58:13.325Z,2.10
2023-01-21T02:03:36.783Z,2.10
2023-01-21T02:08:41.363Z,2.20
2023-01-21T02:13:57.898Z,2.20
2023-01-21T02:19:28.417Z,2.20
2023-01-21T02:24:49.928Z,2.20
2023-01-21T02:30:11.681Z,2.20
2023-01-21T02:35:34.484Z,2.30
2023-01-21T02:40:58.549Z,2.30
2023-01-21T02:46:24.584Z,2.30
2023-01-21T02:51:27.741Z,2.30
2023-01-21T02:56:30.762Z,2.30
2023-01-21T03:02:03.120Z,2.30
2023-01-21T03:07:38.457Z,2.40
2023-01-21T03:13:02.064Z,2.40
2023-01-21T03:18:13.030Z,2.40
2023-01-21T03:23:22.796Z,2.40
2023-01-21T03:28:30.809Z,2.40
2023-01-21T03:33:39.437Z,2.40
2023-01-21T03:38:50.052Z,2.40
2023-01-21T03:43:53.156Z,2.50
2023-01-21T03:49:08.987Z,2.50
2023-01-21T03:54:12.043Z,2.50
2023-01-21T03:59:14.876Z,2.50
2023-01-21T04:04:17.920Z,2.60
2023-01-21T04:09:22.193Z,2.60
2023-01-21T04:14:25.384Z,2.60
2023-01-21T04:19:28.415Z,2.50
2023-01-21T04:24:33.776Z,2.50
2023-01-21T04:29:37.595Z,2.50
2023-01-21T04:34:40.371Z,2.40
2023-01-21T04:39:43.323Z,2.40
2023-01-21T04:44:46.371Z,2.40
2023-01-21T04:49:49.259Z,2.40
2023-01-21T04:54:52.349Z,2.30
2023-01-21T04:59:55.333Z,2.30
2023-01-21T05:04:58.391Z,2.30
2023-01-21T05:10:01.375Z,2.20
2023-01-21T05:15:05.249Z,2.20
2023-01-21T05:20:09.093Z,2.20
2023-01-21T05:25:12.062Z,2.20
2023-01-21T05:30:15.285Z,2.20
2023-01-21T05:35:21.353Z,2.20
2023-01-21T05:40:24.369Z,2.20
2023-01-21T05:45:27.317Z,2.20
2023-01-21T05:50:30.138Z,2.20
2023-01-21T05:55:33.239Z,2.20
2023-01-21T06:00:36.373Z,2.20
2023-01-21T06:05:41.640Z,2.20
2023-01-21T06:10:45.274Z,2.20
2023-01-21T06:15:48.230Z,2.20
2023-01-21T06:20:51.301Z,2.20
2023-01-21T06:25:54.377Z,2.20
2023-01-21T06:30:57.811Z,2.30
2023-01-21T06:36:02.217Z,2.30
2023-01-21T06:41:05.372Z,2.40
2023-01-21T06:46:08.145Z,2.40
2023-01-21T06:51:11.184Z,2.50
2023-01-21T06:56:14.281Z,2.50
2023-01-21T07:01:17.121Z,2.60
2023-01-21T07:06:22.227Z,2.60
2023-01-21T07:11:25.210Z,2.60
2023-01-21T07:16:28.358Z,2.70
2023-01-21T07:21:31.509Z,2.70
2023-01-21T07:26:38.006Z,2.70
2023-01-21T07:31:40.997Z,2.70
2023-01-21T07:36:43.985Z,2.80
2023-01-21T07:41:47.009Z,2.80
2023-01-21T07:46:50.231Z,2.90
2023-01-21T07:51:57.641Z,3.00
2023-01-21T07:57:00.370Z,3.00
2023-01-21T08:02:03.516Z,3.10
2023-01-21T08:07:12.034Z,3.20
2023-01-21T08:12:16.474Z,3.20
2023-01-21T08:17:19.570Z,3.30
2023-01-21T08:22:23.271Z,3.30
2023-01-21T08:27:26.070Z,3.30
2023-01-21T08:32:31.868Z,3.40
2023-01-21T08:37:34.779Z,3.40
2023-01-21T08:42:37.760Z,3.40
2023-01-21T08:47:40.863Z,3.50
2023-01-21T08:52:50.013Z,3.50
2023-01-21T08:57:56.208Z,3.50
2023-01-21T09:02:59.904Z,3.60
2023-01-21T09:08:02.886Z,3.70
2023-01-21T09:13:08.615Z,3.70
2023-01-21T09:18:12.047Z,3.80
2023-01-21T09:23:24.596Z,3.70
2023-01-21T09:28:27.823Z,3.70
2023-01-21T09:33:33.588Z,3.70
2023-01-21T09:38:36.411Z,3.80
2023-01-21T09:44:02.349Z,3.90
2023-01-21T09:49:13.432Z,4.00
2023-01-21T09:54:27.319Z,4.00
2023-01-21T10:00:01.562Z,3.90
2023-01-21T10:05:32.971Z,3.90
2023-01-21T10:11:01.849Z,3.90
2023-01-21T10:16:25.617Z,4.00
2023-01-21T10:21:50.638Z,4.00
2023-01-21T10:26:54.614Z,4.00
2023-01-21T10:32:07.237Z,4.10
2023-01-21T10:37:25.200Z,4.10
2023-01-21T10:42:51.538Z,4.10
2023-01-21T10:48:15.785Z,4.10
2023-01-21T10:53:33.034Z,4.20
2023-01-21T10:58:53.959Z,4.20
2023-01-21T11:04:04.700Z,4.20
2023-01-21T11:09:12.977Z,4.20
2023-01-21T11:14:15.983Z,4.10
2023-01-21T11:19:30.485Z,4.10
2023-01-21T11:24:45.231Z,4.00
2023-01-21T11:29:50.236Z,4.00
2023-01-21T11:35:02.478Z,4.00
2023-01-21T11:40:25.286Z,4.00
2023-01-21T11:45:37.380Z,4.00
2023-01-21T11:50:40.914Z,3.90
2023-01-21T11:55:57.369Z,4.00
2023-01-21T12:01:04.369Z,4.00
2023-01-21T12:06:08.698Z,4.00
2023-01-21T12:11:19.063Z,4.10
2023-01-21T12:16:58.420Z,4.10
2023-01-21T12:22:39.530Z,4.20
2023-01-21T12:28:29.714Z,4.40
2023-01-21T12:33:32.767Z,4.50
2023-01-21T12:38:45.720Z,4.50
2023-01-21T12:43:54.594Z,4.50
2023-01-21T12:49:45.469Z,4.50
2023-01-21T12:55:07.165Z,4.50
2023-01-21T13:00:33.172Z,4.40
2023-01-21T13:05:50.523Z,4.40
2023-01-21T13:11:22.154Z,4.30
2023-01-21T13:16:26.565Z,4.30
2023-01-21T13:22:10.049Z,4.30
2023-01-21T13:27:41.178Z,4.30
2023-01-21T13:33:41.350Z,4.30
2023-01-21T13:39:01.685Z,4.30
2023-01-21T13:44:30.468Z,4.30
2023-01-21T13:49:45.271Z,4.30
2023-01-21T13:55:30.723Z,4.30
2023-01-21T14:01:00.901Z,4.30
2023-01-21T14:06:13.675Z,4.30
2023-01-21T14:11:27.903Z,4.30
2023-01-21T14:16:55.484Z,4.20
2023-01-21T14:22:16.685Z,4.20
2023-01-21T14:27:48.495Z,4.20
2023-01-21T14:33:02.376Z,4.20
2023-01-21T14:38:58.657Z,4.20
2023-01-21T14:44:01.703Z,4.30
2023-01-21T14:49:09.584Z,4.20
2023-01-21T14:54:16.069Z,4.20
2023-01-21T14:59:41.794Z,4.10
2023-01-21T15:05:22.064Z,4.10
2023-01-21T15:10:38.956Z,4.00
2023-01-21T15:16:20.272Z,3.90
2023-01-21T15:21:42.296Z,3.80
2023-01-21T15:27:16.083Z,3.70
2023-01-21T15:32:44.822Z,3.60
2023-01-21T15:38:11.590Z,3.50
2023-01-21T15:43:41.942Z,3.50
2023-01-21T15:49:10.833Z,3.50
2023-01-21T15:54:38.292Z,3.40
2023-01-21T16:00:15.608Z,3.40
2023-01-21T16:05:34.049Z,3.40
2023-01-21T16:11:01.594Z,3.30
2023-01-21T16:16:56.845Z,3.30
2023-01-21T16:22:07.716Z,3.30
2023-01-21T16:27:32.435Z,3.30
2023-01-21T16:32:37.234Z,3.30
2023-01-21T16:37:43.564Z,3.30
2023-01-21T16:42:47.231Z,3.30
2023-01-21T16:47:57.452Z,3.30
2023-01-21T16:53:07.868Z,3.30
2023-01-21T16:58:29.566Z,3.20
2023-01-21T17:03:33.408Z,3.30
2023-01-21T17:08:37.529Z,3.20
2023-01-21T17:13:48.469Z,3.20
2023-01-21T17:19:06.013Z,3.20
2023-01-21T17:24:29.515Z,3.20
2023-01-21T17:29:34.872Z,3.20
2023-01-21T17:34:40.069Z,3.30
2023-01-21T17:40:00.848Z,3.20
2023-01-21T17:45:05.282Z,3.30
2023-01-21T17:50:26.787Z,3.20
2023-01-21T17:55:37.940Z,3.30
2023-01-21T18:00:46.108Z,3.30
2023-01-21T18:05:49.211Z,3.30
2023-01-21T18:10:52.270Z,3.30
2023-01-21T18:15:55.130Z,3.30
2023-01-21T18:20:58.845Z,3.30
2023-01-21T18:26:03.539Z,3.30
2023-01-21T18:31:07.455Z,3.40
2023-01-21T18:36:14.908Z,3.40
2023-01-21T18:41:17.935Z,3.40
2023-01-21T18:46:20.831Z,3.40
2023-01-21T18:51:23.661Z,3.40
2023-01-21T18:56:26.545Z,3.40
2023-01-21T19:01:29.623Z,3.40
2023-01-21T19:06:32.788Z,3.40
2023-01-21T19:11:35.740Z,3.40
2023-01-21T19:16:41.160Z,3.40
2023-01-21T19:21:44.479Z,3.40
2023-01-21T19:26:48.653Z,3.40
2023-01-21T19:31:51.569Z,3.40
2023-01-21T19:36:54.635Z,3.40
2023-01-21T19:42:08.002Z,3.40
2023-01-21T19:47:27.849Z,3.40
2023-01-21T19:52:34.295Z,3.40
2023-01-21T19:57:38.367Z,3.40
2023-01-21T20:02:41.375Z,3.40
2023-01-21T20:07:46.697Z,3.40
2023-01-21T20:12:51.069Z,3.30
2023-01-21T20:17:55.418Z,3.30
2023-01-21T20:23:00.007Z,3.30
2023-01-21T20:28:14.960Z,3.30
2023-01-21T20:33:21.453Z,3.20
2023-01-21T20:38:31.988Z,3.30
2023-01-21T20:43:34.955Z,3.20
2023-01-21T20:48:43.031Z,3.20
2023-01-21T20:53:45.835Z,3.20
2023-01-21T20:58:49.285Z,3.30
2023-01-21T21:03:54.017Z,3.30
2023-01-21T21:08:58.128Z,3.30
2023-01-21T21:14:02.143Z,3.30
2023-01-21T21:19:05.087Z,3.40
2023-01-21T21:24:08.064Z,3.40
2023-01-21T21:29:14.333Z,3.40
2023-01-21T21:34:18.215Z,3.40
2023-01-21T21:39:22.206Z,3.50
2023-01-21T21:44:25.198Z,3.50
2023-01-21T21:49:29.752Z,3.50
2023-01-21T21:54:33.281Z,3.50
2023-01-21T21:59:36.377Z,3.50
2023-01-21T22:04:39.287Z,3.60
2023-01-21T22:09:42.232Z,3.60
2023-01-21T22:14:45.154Z,3.60
2023-01-21T22:19:47.985Z,3.60
2023-01-21T22:24:53.567Z,3.60
2023-01-21T22:29:59.207Z,3.60
2023-01-21T22:35:03.029Z,3.70
2023-01-21T22:40:07.072Z,3.70
2023-01-21T22:45:10.711Z,3.70
2023-01-21T22:50:14.462Z,3.70
2023-01-21T22:55:17.509Z,3.70
2023-01-21T23:00:38.900Z,3.80
2023-01-21T23:05:42.480Z,3.80
2023-01-21T23:10:47.014Z,3.80
2023-01-21T23:15:49.915Z,3.80
2023-01-21T23:20:53.215Z,3.80
2023-01-21T23:25:56.273Z,3.80
2023-01-21T23:31:08.796Z,3.80
2023-01-21T23:36:13.672Z,3.90
2023-01-21T23:41:19.746Z,3.90
2023-01-21T23:46:22.911Z,3.90
2023-01-21T23:51:25.987Z,3.90
2023-01-21T23:56:29.808Z,4.00
